Time;durP1;ratioP1;P1;durP2;ratioP2;P2;SDS_P1;SDS_P2;PMS_P1;PMS_P2;Temp;Humidity;BMP_temperature;BMP_pressure;BME280_temperature;BME280_humidity;BME280_pressure;Samples;Min_cycle;Max_cycle;Signal;HPM_P1;HPM_P2
2022/08/13 00:04:35;;;;;;;6.82;4.07;;;;;;;19.07;100.00;100369.13;4954591;29;20045;-82
2022/08/13 00:09:29;;;;;;;5.78;3.63;;;;;;;19.16;100.00;100374.22;4949021;28;20031;-82
2022/08/13 00:14:40;;;;;;;6.65;3.80;;;;;;;19.31;100.00;100374.69;4948103;29;20123;-90
2022/08/13 00:17:14;;;;;;;4.45;3.45;;;;;;;19.19;100.00;100379.16;4950977;28;20107;-82
2022/08/13 00:19:44;;;;;;;8.57;4.53;;;;;;;19.26;100.00;100366.47;4945123;29;20110;-83
2022/08/13 00:22:18;;;;;;;7.88;4.25;;;;;;;19.25;100.00;100356.78;4950922;28;20067;-82
2022/08/13 00:24:45;;;;;;;7.35;3.95;;;;;;;19.28;100.00;100345.56;4962314;29;20035;-82
2022/08/13 00:27:10;;;;;;;8.70;3.90;;;;;;;19.24;100.00;100337.13;4978691;28;20039;-82
2022/08/13 00:29:39;;;;;;;6.00;4.22;;;;;;;19.23;100.00;100326.59;4972511;28;20071;-81
2022/08/13 00:32:05;;;;;;;7.45;4.78;;;;;;;19.20;100.00;100325.19;4976194;28;20047;-82
2022/08/13 00:34:30;;;;;;;8.43;5.15;;;;;;;19.19;100.00;100342.34;4970186;28;20058;-83
2022/08/13 00:36:56;;;;;;;8.52;5.38;;;;;;;19.25;100.00;100356.78;4970322;28;20023;-84
2022/08/13 00:39:21;;;;;;;6.68;4.75;;;;;;;19.24;100.00;100355.13;4957327;28;20048;-86
2022/08/13 00:41:47;;;;;;;9.25;4.93;;;;;;;19.24;100.00;100360.50;4948248;29;20031;-84
2022/08/13 00:44:15;;;;;;;10.13;5.63;;;;;;;19.15;100.00;100362.66;4947922;29;20366;-83
2022/08/13 00:46:42;;;;;;;7.50;5.85;;;;;;;19.09;100.00;100348.22;4944889;29;20382;-83
2022/08/13 00:49:10;;;;;;;10.15;6.35;;;;;;;19.05;100.00;100339.00;4943803;29;20474;-82
2022/08/13 00:51:38;;;;;;;6.85;5.63;;;;;;;19.11;100.00;100323.84;4947920;28;20397;-84
2022/08/13 00:54:06;;;;;;;11.18;5.72;;;;;;;19.10;100.00;100323.03;4940159;29;20035;-84
2022/08/13 00:56:35;;;;;;;10.73;5.65;;;;;;;19.19;100.00;100309.31;4945097;29;20469;-84
2022/08/13 00:59:11;;;;;;;9.27;5.38;;;;;;;19.24;100.00;100302.22;4948855;29;20102;-84
2022/08/13 01:01:44;;;;;;;9.40;4.97;;;;;;;19.28;100.00;100298.03;4943589;29;20039;-85
2022/08/13 01:04:09;;;;;;;7.65;5.00;;;;;;;19.29;100.00;100298.88;4941904;29;20036;-84
2022/08/13 01:06:35;;;;;;;7.35;5.43;;;;;;;19.34;100.00;100296.31;4945267;28;20046;-84
2022/08/13 01:09:05;;;;;;;10.52;6.20;;;;;;;19.14;100.00;100290.34;4946380;28;20031;-85
2022/08/13 01:11:34;;;;;;;9.68;5.38;;;;;;;18.92;100.00;100277.34;4943277;29;20509;-83
2022/08/13 01:14:05;;;;;;;12.07;6.30;;;;;;;18.88;100.00;100281.53;4951206;29;20040;-84
2022/08/13 01:16:36;;;;;;;9.02;5.60;;;;;;;18.99;100.00;100286.13;4947656;29;20067;-86
2022/08/13 01:19:06;;;;;;;9.35;5.80;;;;;;;18.88;100.00;100302.19;4947841;29;20465;-84
2022/08/13 01:21:44;;;;;;;9.15;6.72;;;;;;;18.93;100.00;100295.09;4947713;29;20035;-83
2022/08/13 01:24:11;;;;;;;10.98;6.70;;;;;;;18.78;100.00;100304.53;4947534;29;20043;-84
2022/08/13 01:26:39;;;;;;;9.60;6.35;;;;;;;18.87;100.00;100317.47;4946410;29;20436;-85
2022/08/13 01:29:06;;;;;;;11.88;6.10;;;;;;;18.92;100.00;100339.13;4946830;29;20066;-84
2022/08/13 01:31:33;;;;;;;7.97;5.60;;;;;;;18.93;100.00;100359.53;4946172;28;20103;-85
2022/08/13 01:33:59;;;;;;;11.27;5.93;;;;;;;18.95;100.00;100362.84;4944255;28;20035;-84
2022/08/13 01:36:27;;;;;;;11.38;6.75;;;;;;;18.96;100.00;100358.28;4946836;29;20083;-83
2022/08/13 01:38:52;;;;;;;7.97;6.93;;;;;;;19.03;100.00;100364.41;4946581;29;20036;-85
2022/08/13 01:41:19;;;;;;;10.40;8.32;;;;;;;19.04;100.00;100361.50;4947625;29;20102;-83
2022/08/13 01:43:45;;;;;;;16.63;8.38;;;;;;;19.01;100.00;100359.28;4947016;29;20042;-84
2022/08/13 01:46:12;;;;;;;11.65;9.20;;;;;;;19.02;100.00;100352.84;4945543;29;20039;-86
2022/08/13 01:51:35;;;;;;;15.95;9.55;;;;;;;19.05;100.00;100330.94;4946915;28;20126;-83
2022/08/13 01:54:01;;;;;;;13.88;9.98;;;;;;;19.07;100.00;100318.09;4936318;29;20106;-82
2022/08/13 01:56:30;;;;;;;12.18;9.55;;;;;;;19.09;100.00;100316.00;4946755;29;20039;-84
2022/08/13 01:58:58;;;;;;;14.02;9.85;;;;;;;19.09;100.00;100310.63;4943450;29;20039;-81
2022/08/13 02:01:25;;;;;;;17.25;10.40;;;;;;;19.02;100.00;100311.75;4943599;29;20028;-82
2022/08/13 02:03:58;;;;;;;12.82;10.02;;;;;;;18.92;100.00;100314.94;4944120;28;20051;-82
2022/08/13 02:06:29;;;;;;;18.02;11.38;;;;;;;18.89;100.00;100319.94;4945318;29;21186;-83
2022/08/13 02:08:59;;;;;;;12.95;10.32;;;;;;;18.78;100.00;100302.69;4946236;29;20070;-81
2022/08/13 02:11:29;;;;;;;18.17;10.73;;;;;;;18.79;100.00;100293.56;4947133;29;20056;-82
2022/08/13 02:13:56;;;;;;;14.98;11.25;;;;;;;18.77;100.00;100284.09;4946508;29;20070;-81
2022/08/13 02:16:23;;;;;;;15.02;11.07;;;;;;;18.71;100.00;100285.81;4947379;29;20043;-83
2022/08/13 02:18:53;;;;;;;17.52;11.57;;;;;;;18.69;100.00;100279.84;4948078;29;20469;-83
2022/08/13 02:21:22;;;;;;;16.10;11.15;;;;;;;18.69;100.00;100292.44;4944326;29;20070;-82
2022/08/13 02:23:53;;;;;;;16.42;11.32;;;;;;;18.68;100.00;100291.63;4943697;29;20505;-82
2022/08/13 02:26:23;;;;;;;13.07;11.55;;;;;;;18.70;100.00;100304.81;4940785;29;20493;-80
2022/08/13 02:28:51;;;;;;;16.45;10.95;;;;;;;18.67;100.00;100302.56;4944081;28;20054;-83
2022/08/13 02:31:18;;;;;;;18.73;11.07;;;;;;;18.72;100.00;100311.63;4944286;29;20035;-83
2022/08/13 02:33:43;;;;;;;13.50;10.57;;;;;;;18.74;100.00;100306.84;4946285;29;20043;-81
2022/08/13 02:36:10;;;;;;;13.25;10.15;;;;;;;18.89;100.00;100310.00;4941579;29;20032;-82
2022/08/13 02:38:37;;;;;;;13.73;11.20;;;;;;;18.76;100.00;100309.31;4948770;29;20046;-82
2022/08/13 02:43:47;;;;;;;21.15;11.77;;;;;;;18.69;100.00;100320.13;4945968;28;20556;-83
2022/08/13 02:46:15;;;;;;;16.60;11.18;;;;;;;18.89;100.00;100319.94;4946358;29;20035;-83
2022/08/13 02:48:42;;;;;;;13.88;9.32;;;;;;;18.97;100.00;100315.09;4944310;29;20074;-82
2022/08/13 02:51:11;;;;;;;11.52;10.02;;;;;;;19.09;100.00;100318.69;4944960;29;20032;-82
2022/08/13 02:53:39;;;;;;;13.30;10.25;;;;;;;18.99;100.00;100323.75;4940835;29;20039;-83
2022/08/13 02:56:08;;;;;;;14.65;10.48;;;;;;;18.89;100.00;100336.84;4940627;29;20485;-81
2022/08/13 02:58:39;;;;;;;16.67;11.35;;;;;;;18.81;100.00;100333.63;4951783;29;20551;-84
2022/08/13 03:01:06;;;;;;;18.50;11.13;;;;;;;18.73;100.00;100340.09;4944027;29;20040;-79
2022/08/13 03:03:31;;;;;;;12.77;10.48;;;;;;;18.76;100.00;100342.34;4941214;29;20035;-82
2022/08/13 03:05:58;;;;;;;15.07;11.25;;;;;;;18.68;100.00;100334.56;4946306;29;20036;-82
2022/08/13 03:08:27;;;;;;;15.63;10.50;;;;;;;18.72;100.00;100329.59;4946481;29;20122;-84
2022/08/13 03:10:56;;;;;;;13.85;10.43;;;;;;;18.70;100.00;100342.38;4942296;29;20118;-83
2022/08/13 03:13:26;;;;;;;16.80;10.13;;;;;;;18.69;100.00;100336.22;4946137;29;20062;-83
2022/08/13 03:15:55;;;;;;;16.35;10.43;;;;;;;18.72;100.00;100346.53;4941365;28;20051;-79
2022/08/13 03:18:22;;;;;;;13.57;11.10;;;;;;;18.77;100.00;100341.31;4956701;29;20035;-83
2022/08/13 03:20:49;;;;;;;11.27;9.82;;;;;;;18.83;100.00;100336.91;4948820;29;20050;-83
2022/08/13 03:23:15;;;;;;;15.30;10.25;;;;;;;18.96;100.00;100342.97;4954254;29;20028;-83
2022/08/13 03:25:40;;;;;;;15.05;9.82;;;;;;;18.98;100.00;100338.22;4948827;28;20031;-81
2022/08/13 03:28:06;;;;;;;15.00;10.30;;;;;;;18.85;100.00;100338.34;4947045;29;20035;-82
2022/08/13 03:30:34;;;;;;;15.07;10.45;;;;;;;18.63;100.00;100344.34;4944204;29;20101;-85
2022/08/13 03:33:11;;;;;;;12.85;10.85;;;;;;;18.66;100.00;100330.47;4938956;29;20133;-82
2022/08/13 03:35:38;;;;;;;15.73;10.43;;;;;;;18.58;100.00;100339.59;4938862;29;20489;-83
2022/08/13 03:38:06;;;;;;;15.75;10.82;;;;;;;18.50;100.00;100335.31;4938918;29;20514;-81
2022/08/13 03:43:17;;;;;;;17.13;10.48;;;;;;;18.34;100.00;100333.13;4938685;29;20440;-84
2022/08/13 03:45:46;;;;;;;11.15;9.68;;;;;;;18.31;100.00;100338.13;4938663;29;20044;-82
2022/08/13 03:48:13;;;;;;;15.52;10.00;;;;;;;18.33;100.00;100341.41;4938866;29;20171;-82
2022/08/13 03:50:40;;;;;;;14.43;9.60;;;;;;;18.30;100.00;100347.19;4938990;29;20062;-82
2022/08/13 03:53:06;;;;;;;15.38;10.30;;;;;;;18.34;100.00;100349.25;4939570;29;20405;-82
2022/08/13 03:55:37;;;;;;;17.85;10.63;;;;;;;18.31;100.00;100346.16;4939026;29;20032;-81
2022/08/13 03:58:05;;;;;;;21.98;11.05;;;;;;;18.23;100.00;100344.56;4939165;29;20043;-81
2022/08/13 04:00:41;;;;;;;19.45;11.35;;;;;;;18.15;100.00;100344.00;4938456;29;20036;-84
2022/08/13 04:03:22;;;;;;;17.10;11.55;;;;;;;18.14;100.00;100345.03;4938078;29;20032;-81
2022/08/13 04:05:53;;;;;;;15.50;11.77;;;;;;;18.11;100.00;100342.78;4953019;28;20043;-81
2022/08/13 04:08:20;;;;;;;13.23;11.23;;;;;;;18.10;100.00;100346.53;4937131;29;20520;-80
2022/08/13 04:10:47;;;;;;;14.18;10.85;;;;;;;18.20;100.00;100352.22;4938174;29;20039;-80
2022/08/13 04:13:15;;;;;;;14.57;10.45;;;;;;;18.24;100.00;100354.25;4938109;29;20043;-82
2022/08/13 04:15:43;;;;;;;12.63;10.35;;;;;;;18.24;100.00;100358.78;4938383;29;20613;-82
2022/08/13 04:18:13;;;;;;;13.48;9.77;;;;;;;18.24;100.00;100348.06;4938177;29;20090;-84
2022/08/13 04:20:43;;;;;;;12.73;10.05;;;;;;;18.16;100.00;100348.34;4952558;29;20040;-80
2022/08/13 04:23:16;;;;;;;21.30;10.23;;;;;;;18.10;100.00;100346.53;4938140;29;20046;-83
2022/08/13 04:25:43;;;;;;;13.23;10.27;;;;;;;18.06;100.00;100346.91;4938088;29;20560;-80
2022/08/13 04:28:11;;;;;;;18.35;10.63;;;;;;;18.08;100.00;100344.03;4938330;29;20060;-82
2022/08/13 04:30:40;;;;;;;17.08;10.75;;;;;;;18.04;100.00;100349.00;4937870;29;20031;-82
2022/08/13 04:33:11;;;;;;;16.60;10.10;;;;;;;18.01;100.00;100343.25;4937842;29;20039;-81
2022/08/13 04:35:37;;;;;;;12.30;9.60;;;;;;;17.99;100.00;100354.22;4937658;29;20028;-82
2022/08/13 04:38:05;;;;;;;13.88;9.88;;;;;;;18.08;100.00;100344.88;4937638;29;20036;-81
2022/08/13 04:40:36;;;;;;;14.93;9.98;;;;;;;18.06;100.00;100346.91;4938172;29;20039;-82
2022/08/13 04:43:03;;;;;;;13.73;10.68;;;;;;;18.00;100.00;100344.28;4937947;29;20095;-83
2022/08/13 04:45:32;;;;;;;13.30;10.80;;;;;;;18.04;100.00;100335.59;4938075;29;20043;-82
2022/08/13 04:48:00;;;;;;;13.50;10.63;;;;;;;17.99;100.00;100334.59;4937783;29;20058;-81
2022/08/13 04:50:29;;;;;;;18.38;11.07;;;;;;;18.03;100.00;100342.00;4959468;29;20043;-80
2022/08/13 04:52:55;;;;;;;15.65;10.52;;;;;;;18.06;100.00;100333.50;4960976;29;20048;-80
2022/08/13 04:55:21;;;;;;;15.23;10.63;;;;;;;17.96;100.00;100333.16;4958613;29;20421;-82
2022/08/13 04:57:48;;;;;;;15.30;9.77;;;;;;;18.01;100.00;100336.03;4946415;29;20043;-81
2022/08/13 05:00:14;;;;;;;13.80;9.55;;;;;;;18.16;100.00;100340.28;4946723;29;20023;-81
2022/08/13 05:02:41;;;;;;;15.82;9.23;;;;;;;18.26;100.00;100341.44;4948709;29;20163;-83
2022/08/13 05:05:09;;;;;;;16.67;8.32;;;;;;;18.39;100.00;100340.56;4946355;29;20386;-82
2022/08/13 05:07:35;;;;;;;11.13;8.82;;;;;;;18.60;100.00;100348.25;4941918;29;20047;-82
2022/08/13 05:10:01;;;;;;;14.25;7.60;;;;;;;18.82;100.00;100343.34;4939304;29;20063;-81
2022/08/13 05:12:27;;;;;;;9.77;6.55;;;;;;;18.91;100.00;100348.22;4937597;29;20032;-81
2022/08/13 05:14:52;;;;;;;8.23;6.50;;;;;;;18.97;100.00;100339.25;4937032;29;20044;-83
2022/08/13 05:17:18;;;;;;;12.70;5.43;;;;;;;18.90;100.00;100337.69;4937172;29;20071;-83
2022/08/13 05:19:47;;;;;;;7.30;5.90;;;;;;;18.84;100.00;100347.44;4936880;29;20120;-82
2022/08/13 05:22:13;;;;;;;8.43;5.32;;;;;;;18.95;100.00;100351.28;4935776;29;20036;-84
2022/08/13 05:24:39;;;;;;;10.57;5.85;;;;;;;19.16;100.00;100342.00;4936883;29;20028;-83
2022/08/13 05:27:04;;;;;;;14.93;5.65;;;;;;;19.33;100.00;100348.41;4936917;29;20047;-83
2022/08/13 05:29:30;;;;;;;10.80;5.18;;;;;;;19.45;100.00;100347.50;4936763;29;20382;-85
2022/08/13 05:31:56;;;;;;;8.70;4.60;;;;;;;19.64;100.00;100350.97;4936730;29;20039;-85
2022/08/13 05:34:26;;;;;;;8.20;4.40;;;;;;;19.81;100.00;100352.03;4937052;29;20040;-85
2022/08/13 05:36:52;;;;;;;13.20;4.97;;;;;;;20.19;100.00;100348.19;4937135;29;20490;-81
2022/08/13 05:39:18;;;;;;;6.97;4.28;;;;;;;20.52;100.00;100348.53;4936062;29;20061;-82
2022/08/13 05:41:46;;;;;;;6.63;3.95;;;;;;;20.64;100.00;100346.72;4936664;29;20568;-84
2022/08/13 05:44:12;;;;;;;16.08;4.05;;;;;;;20.95;100.00;100342.84;4936755;29;20175;-83
2022/08/13 05:46:37;;;;;;;8.90;4.30;;;;;;;21.10;100.00;100357.56;4936570;29;20152;-85
2022/08/13 05:49:03;;;;;;;11.75;3.72;;;;;;;21.41;100.00;100347.44;4937053;29;20032;-81
2022/08/13 05:51:31;;;;;;;11.48;3.80;;;;;;;21.47;100.00;100350.03;4936923;29;20040;-85
2022/08/13 05:53:59;;;;;;;5.32;3.00;;;;;;;22.57;100.00;100357.84;4936473;29;20118;-83
2022/08/13 05:56:26;;;;;;;6.97;2.78;;;;;;;23.71;100.00;100360.91;4937045;29;20035;-82
2022/08/13 05:58:52;;;;;;;4.50;2.28;;;;;;;24.45;100.00;100364.72;4936919;29;20039;-85
2022/08/13 06:04:14;;;;;;;7.10;2.63;;;;;;;23.73;100.00;100369.59;4939996;29;20050;-91
2022/08/13 06:06:44;;;;;;;6.97;2.85;;;;;;;22.85;100.00;100365.06;4938012;29;20095;-89
2022/08/13 06:09:09;;;;;;;10.00;2.95;;;;;;;22.69;100.00;100361.28;4937360;29;20086;-88
2022/08/13 06:11:38;;;;;;;15.30;3.00;;;;;;;22.71;100.00;100364.56;4939449;29;20489;-89
2022/08/13 06:14:04;;;;;;;9.77;3.00;;;;;;;23.37;100.00;100373.66;4953063;29;20044;-86
2022/08/13 06:16:30;;;;;;;6.28;2.92;;;;;;;23.78;100.00;100373.19;4938415;29;20050;-88
2022/08/13 06:18:59;;;;;;;8.02;3.00;;;;;;;23.30;100.00;100373.06;4937465;29;20123;-89
2022/08/13 06:21:27;;;;;;;9.40;2.85;;;;;;;23.53;100.00;100370.16;4939529;29;20032;-89
2022/08/13 06:23:54;;;;;;;9.90;2.80;;;;;;;23.51;100.00;100369.56;4939292;29;20572;-92
2022/08/13 06:26:22;;;;;;;10.13;2.58;;;;;;;23.35;100.00;100370.41;4937737;29;20035;-90
2022/08/13 06:28:50;;;;;;;3.30;2.78;;;;;;;23.16;100.00;100364.47;4937616;29;20099;-91
2022/08/13 06:31:18;;;;;;;5.95;2.60;;;;;;;23.38;100.00;100362.63;4938459;29;20039;-88
2022/08/13 06:33:45;;;;;;;6.95;2.50;;;;;;;23.52;100.00;100361.22;4954175;29;20374;-87
2022/08/13 06:36:13;;;;;;;3.92;2.20;;;;;;;23.54;100.00;100367.19;4963580;28;20046;-87
2022/08/13 06:38:48;;;;;;;4.70;2.42;;;;;;;23.81;100.00;100369.97;4963286;28;20038;-90
2022/08/13 06:41:16;;;;;;;4.25;1.80;;;;;;;23.98;100.00;100376.13;4960249;28;20044;-88
2022/08/13 06:43:44;;;;;;;4.30;2.00;;;;;;;24.42;99.58;100370.66;4956488;29;20046;-89
2022/08/13 06:46:11;;;;;;;4.22;1.75;;;;;;;24.63;98.81;100372.47;4958015;28;20028;-89
2022/08/13 06:48:41;;;;;;;6.22;1.50;;;;;;;24.45;100.00;100381.81;4956678;29;20036;-89
2022/08/13 06:51:09;;;;;;;2.72;1.45;;;;;;;24.64;98.73;100374.09;4957381;28;20039;-88
2022/08/13 06:53:36;;;;;;;1.50;1.35;;;;;;;25.48;94.64;100375.03;4961357;28;20043;-87
2022/08/13 06:56:33;;;;;;;3.83;1.08;;;;;;;25.99;87.20;100370.63;4949361;28;20039;-86
2022/08/13 06:59:00;;;;;;;3.70;1.30;;;;;;;26.03;87.34;100370.91;4885406;29;20049;-86
2022/08/13 07:01:28;;;;;;;4.65;1.30;;;;;;;26.78;85.11;100375.66;4888244;29;20044;-92
2022/08/13 07:03:55;;;;;;;2.45;1.20;;;;;;;27.36;80.38;100373.47;4888339;29;20081;-91
2022/08/13 07:06:27;;;;;;;1.38;1.10;;;;;;;26.46;81.43;100369.69;4884315;29;20123;-92
2022/08/13 07:09:02;;;;;;;2.40;1.00;;;;;;;26.51;77.63;100377.84;4897721;29;20398;-91
2022/08/13 07:11:31;;;;;;;2.03;1.13;;;;;;;25.84;80.12;100376.03;4946945;29;20040;-86
2022/08/13 07:14:02;;;;;;;2.25;1.50;;;;;;;26.05;80.24;100380.44;4947112;29;20083;-91
2022/08/13 07:16:33;;;;;;;3.13;1.17;;;;;;;27.31;74.82;100381.66;4946377;29;20046;-91
2022/08/13 07:19:05;;;;;;;4.22;1.17;;;;;;;27.18;72.20;100370.22;4951672;29;20044;-90
2022/08/13 07:21:35;;;;;;;4.75;1.15;;;;;;;26.60;75.41;100370.78;4947978;29;20091;-92
2022/08/13 07:24:02;;;;;;;3.05;0.90;;;;;;;26.66;75.52;100369.69;4945423;29;20536;-91
2022/08/13 07:26:30;;;;;;;1.85;0.88;;;;;;;26.33;77.39;100362.88;4941961;29;20163;-88
2022/08/13 07:28:56;;;;;;;3.53;1.30;;;;;;;26.17;76.84;100364.75;4940961;29;20554;-86
2022/08/13 07:31:27;;;;;;;3.55;1.10;;;;;;;27.32;74.42;100364.22;4940591;29;20032;-89
2022/08/13 07:33:55;;;;;;;3.40;1.00;;;;;;;27.20;64.16;100370.78;4926101;29;20102;-89
2022/08/13 07:36:24;;;;;;;2.53;1.00;;;;;;;27.10;65.36;100354.47;4941460;29;20043;-90
2022/08/13 07:38:52;;;;;;;1.95;1.00;;;;;;;26.80;67.08;100359.09;4954559;28;20086;-90
2022/08/13 07:41:20;;;;;;;8.93;1.40;;;;;;;26.57;69.02;100355.03;4958800;28;20066;-90
2022/08/13 07:43:49;;;;;;;1.52;0.88;;;;;;;26.31;67.64;100356.09;4958762;28;20047;-87
2022/08/13 07:46:17;;;;;;;2.13;1.00;;;;;;;27.08;65.66;100362.06;4965341;28;20039;-86
2022/08/13 07:48:52;;;;;;;1.17;1.00;;;;;;;26.97;65.58;100359.66;4960542;28;20035;-83
2022/08/13 07:51:36;;;;;;;1.60;0.98;;;;;;;27.62;64.57;100364.16;4971910;28;20031;-82
2022/08/13 07:54:13;;;;;;;2.78;1.02;;;;;;;27.38;65.65;100361.19;4968466;29;20031;-81
2022/08/13 07:56:40;;;;;;;2.03;1.15;;;;;;;27.18;64.12;100367.50;4964253;28;20035;-83
2022/08/13 07:59:18;;;;;;;2.42;1.20;;;;;;;27.25;62.64;100364.50;4969682;28;20095;-82
2022/08/13 08:02:06;;;;;;;5.43;1.60;;;;;;;26.99;63.40;100366.44;4965496;29;20457;-83
2022/08/13 08:04:35;;;;;;;4.88;1.25;;;;;;;27.15;62.12;100362.63;4954993;29;20039;-84
2022/08/13 08:07:04;;;;;;;1.55;1.30;;;;;;;26.86;63.16;100374.34;4954052;29;20046;-86
2022/08/13 08:09:36;;;;;;;4.05;1.20;;;;;;;27.12;63.56;100365.06;4950910;29;20500;-90
2022/08/13 08:14:53;;;;;;;4.82;1.88;;;;;;;28.17;59.28;100369.34;4962597;28;20051;-92
2022/08/13 08:17:20;;;;;;;1.92;1.00;;;;;;;28.37;55.56;100370.34;4977376;28;20047;-93
2022/08/13 08:19:50;;;;;;;4.13;1.10;;;;;;;28.53;54.74;100367.22;4976304;29;20054;-94
2022/08/13 08:22:21;;;;;;;3.75;1.10;;;;;;;29.48;53.27;100369.38;4965164;28;20035;-91
2022/08/13 08:24:50;;;;;;;5.00;0.80;;;;;;;29.30;52.69;100370.13;4960949;29;20035;-90
2022/08/13 08:27:23;;;;;;;1.15;0.95;;;;;;;29.20;52.46;100371.81;4960648;28;20401;-90
2022/08/13 08:29:49;;;;;;;1.70;1.00;;;;;;;29.28;50.85;100364.97;4960192;28;20032;-89
2022/08/13 08:32:17;;;;;;;1.40;0.80;;;;;;;29.45;47.52;100375.41;4961601;28;20428;-89
2022/08/13 08:34:47;;;;;;;1.52;0.98;;;;;;;28.95;49.45;100368.53;4961177;29;20061;-93
2022/08/13 08:43:03;;;;;;;2.78;1.20;;;;;;;28.90;51.12;100354.94;4962235;29;20039;-90
2022/08/13 08:45:31;;;;;;;2.05;0.88;;;;;;;29.13;50.62;100367.81;4964328;29;20485;-92
2022/08/13 08:48:00;;;;;;;1.67;1.30;;;;;;;29.33;49.92;100361.38;4960173;29;20050;-90
2022/08/13 08:50:26;;;;;;;1.40;0.85;;;;;;;29.01;50.44;100357.28;4959023;28;20036;-90
2022/08/13 08:55:42;;;;;;;3.90;0.90;;;;;;;28.93;51.92;100357.09;4945293;29;20075;-88
2022/08/13 08:58:11;;;;;;;1.23;0.98;;;;;;;28.84;50.26;100356.88;4957835;29;20086;-89
2022/08/13 09:00:39;;;;;;;1.55;0.98;;;;;;;29.81;47.46;100360.22;4960116;28;20039;-91
2022/08/13 09:03:07;;;;;;;1.48;1.00;;;;;;;29.61;44.78;100358.56;4964657;28;20047;-91
2022/08/13 09:05:38;;;;;;;0.93;0.68;;;;;;;29.39;44.98;100360.19;4962415;28;20062;-86
2022/08/13 09:08:07;;;;;;;3.40;1.05;;;;;;;29.27;44.92;100365.25;4972992;29;20051;-88
2022/08/13 09:10:52;;;;;;;3.65;1.38;;;;;;;29.42;46.04;100368.63;4972427;28;20043;-85
2022/08/13 09:13:21;;;;;;;2.28;0.82;;;;;;;29.43;46.20;100364.00;4980026;28;20027;-85
2022/08/13 09:15:48;;;;;;;6.57;1.48;;;;;;;29.91;46.01;100371.06;4979823;28;20027;-88
2022/08/13 09:18:23;;;;;;;1.50;1.08;;;;;;;29.82;45.31;100375.53;4971008;28;20043;-89
2022/08/13 09:20:50;;;;;;;1.23;1.00;;;;;;;29.89;43.31;100375.19;4973043;28;20039;-85
2022/08/13 09:23:16;;;;;;;2.40;1.38;;;;;;;29.52;44.08;100378.63;4977542;28;20046;-86
2022/08/13 09:25:48;;;;;;;2.22;0.90;;;;;;;30.05;45.06;100371.97;4957097;29;20456;-87
2022/08/13 09:28:26;;;;;;;2.95;1.10;;;;;;;30.06;45.63;100364.59;4954520;29;20042;-91
2022/08/13 09:30:54;;;;;;;2.90;1.20;;;;;;;30.33;44.90;100361.19;4959000;29;20066;-91
2022/08/13 09:33:22;;;;;;;3.17;1.20;;;;;;;30.32;43.38;100365.84;4951956;29;20474;-91
2022/08/13 09:35:52;;;;;;;2.97;1.00;;;;;;;30.79;42.15;100362.13;4952088;29;20043;-92
2022/08/13 09:38:20;;;;;;;2.42;1.00;;;;;;;30.77;41.98;100361.59;4957535;29;20035;-90
2022/08/13 09:40:50;;;;;;;3.33;0.95;;;;;;;30.36;41.12;100361.38;4959889;29;20046;-90
2022/08/13 09:43:28;;;;;;;1.50;1.00;;;;;;;30.47;39.60;100362.06;4959996;28;20386;-90
2022/08/13 09:45:54;;;;;;;2.17;1.08;;;;;;;30.46;39.19;100355.00;4961885;28;20035;-91
2022/08/13 09:48:20;;;;;;;6.05;0.88;;;;;;;30.47;38.24;100356.59;4960617;29;20039;-86
2022/08/13 09:50:46;;;;;;;1.33;1.00;;;;;;;30.88;37.91;100357.56;4961813;29;20035;-90
2022/08/13 09:53:12;;;;;;;3.97;1.10;;;;;;;30.46;39.20;100350.31;4960849;29;20122;-89
2022/08/13 09:55:38;;;;;;;3.38;1.10;;;;;;;30.77;38.89;100345.16;4945209;29;20043;-90
2022/08/13 09:58:04;;;;;;;5.25;1.40;;;;;;;30.56;39.35;100341.16;4961333;28;20035;-88
2022/08/13 10:00:33;;;;;;;2.03;1.13;;;;;;;30.12;40.26;100345.09;4943678;29;20342;-89
2022/08/13 10:03:04;;;;;;;5.70;1.60;;;;;;;30.85;40.80;100347.22;4960479;29;20531;-90
2022/08/13 10:05:34;;;;;;;2.28;1.27;;;;;;;30.99;40.40;100339.88;4959615;28;20095;-89
2022/08/13 10:08:05;;;;;;;2.22;1.67;;;;;;;30.64;39.84;100335.00;4961671;28;20042;-93
2022/08/13 10:10:32;;;;;;;1.90;1.35;;;;;;;30.71;40.30;100340.91;4942250;29;20043;-91
2022/08/13 10:13:01;;;;;;;1.77;1.30;;;;;;;30.66;40.81;100338.22;4958633;28;20391;-94
2022/08/13 10:15:27;;;;;;;2.33;1.70;;;;;;;30.47;40.25;100335.53;4961352;29;20112;-89
2022/08/13 10:18:02;;;;;;;8.73;2.40;;;;;;;31.15;38.57;100335.75;4960911;28;20039;-90
2022/08/13 10:20:30;;;;;;;2.65;1.38;;;;;;;31.36;37.49;100330.66;4959662;29;20115;-91
2022/08/13 10:22:58;;;;;;;3.88;1.02;;;;;;;31.65;37.06;100331.19;4960684;28;20059;-90
2022/08/13 10:25:28;;;;;;;4.65;1.20;;;;;;;32.46;36.30;100323.06;4962159;28;20035;-91
2022/08/13 10:27:54;;;;;;;3.05;1.45;;;;;;;32.34;34.92;100325.56;4962943;28;20028;-94
2022/08/13 10:30:24;;;;;;;3.05;1.42;;;;;;;32.16;36.06;100317.19;4956505;29;20038;-91
2022/08/13 10:32:56;;;;;;;3.20;1.42;;;;;;;32.25;36.83;100325.50;4967414;29;20075;-91
2022/08/13 10:35:27;;;;;;;3.97;1.30;;;;;;;32.10;36.62;100321.19;4961232;29;20126;-92
2022/08/13 10:37:56;;;;;;;3.30;1.63;;;;;;;32.31;35.20;100312.47;4946491;29;20051;-90
2022/08/13 10:40:27;;;;;;;3.60;1.30;;;;;;;31.97;35.63;100310.22;4968117;29;20055;-92
2022/08/13 10:42:53;;;;;;;6.88;1.30;;;;;;;31.89;35.76;100316.44;4962097;29;20453;-92
2022/08/13 10:45:26;;;;;;;2.08;1.10;;;;;;;31.54;36.19;100315.28;4961854;29;20035;-93
2022/08/13 10:47:54;;;;;;;4.22;1.02;;;;;;;32.06;34.64;100306.47;4959164;29;20043;-91
2022/08/13 10:50:29;;;;;;;3.00;1.67;;;;;;;31.92;35.17;100308.41;4955704;29;20101;-89
2022/08/13 10:52:59;;;;;;;3.42;1.70;;;;;;;31.74;35.25;100303.88;4957428;29;20052;-90
2022/08/13 10:55:25;;;;;;;2.78;1.48;;;;;;;31.35;35.82;100309.06;4955958;28;20031;-91
2022/08/13 10:57:52;;;;;;;3.40;1.38;;;;;;;31.29;36.04;100302.09;4958946;29;20039;-93
2022/08/13 11:00:18;;;;;;;3.63;1.83;;;;;;;31.32;36.64;100301.47;4962193;29;20122;-92
2022/08/13 11:02:48;;;;;;;2.38;1.60;;;;;;;31.47;36.01;100298.41;4972355;28;20039;-91
2022/08/13 11:05:14;;;;;;;2.55;1.60;;;;;;;31.54;35.52;100298.84;4971917;28;20111;-92
2022/08/13 11:07:48;;;;;;;4.00;1.40;;;;;;;31.80;35.24;100285.41;4954264;29;20039;-92
2022/08/13 11:10:14;;;;;;;2.83;1.63;;;;;;;32.62;34.15;100285.91;4963159;28;20050;-92
2022/08/13 11:12:50;;;;;;;1.48;1.10;;;;;;;32.85;33.48;100290.25;4960454;29;20067;-90
2022/08/13 11:15:21;;;;;;;2.55;1.10;;;;;;;33.02;31.70;100284.03;4958064;29;20039;-92
2022/08/13 11:17:52;;;;;;;1.70;1.53;;;;;;;32.40;32.11;100285.91;4959547;28;20035;-88
2022/08/13 11:20:19;;;;;;;1.83;0.80;;;;;;;32.34;32.61;100284.44;4957524;28;20043;-89
2022/08/13 11:22:53;;;;;;;2.47;1.02;;;;;;;31.57;31.27;100303.72;4959674;28;20046;-92
2022/08/13 11:25:19;;;;;;;1.83;1.00;;;;;;;30.48;30.94;100287.13;4955009;29;20042;-88
2022/08/13 11:27:45;;;;;;;2.58;1.33;;;;;;;30.41;32.93;100283.94;4953774;28;20617;-87
2022/08/13 11:30:12;;;;;;;1.63;1.10;;;;;;;30.70;33.76;100287.28;4955706;28;20118;-89
2022/08/13 11:32:38;;;;;;;1.52;1.10;;;;;;;31.07;32.91;100289.09;4937997;29;20039;-90
2022/08/13 11:35:04;;;;;;;3.15;1.30;;;;;;;30.93;33.01;100291.78;4953300;29;20046;-85
2022/08/13 11:37:30;;;;;;;2.97;1.30;;;;;;;30.58;33.75;100270.53;4971177;28;20035;-88
2022/08/13 11:39:56;;;;;;;7.40;1.30;;;;;;;30.77;32.80;100276.75;4958635;29;20119;-87
2022/08/13 11:42:21;;;;;;;5.53;1.30;;;;;;;30.43;33.28;100274.34;4958049;28;20039;-86
2022/08/13 11:44:47;;;;;;;4.32;1.00;;;;;;;30.11;34.51;100275.09;4958915;29;20118;-86
2022/08/13 11:47:12;;;;;;;2.50;1.20;;;;;;;29.98;34.66;100275.84;4974626;28;20118;-86
2022/08/13 11:49:38;;;;;;;4.28;1.40;;;;;;;29.48;37.21;100281.97;4958634;29;20039;-90
2022/08/13 11:52:04;;;;;;;5.03;1.33;;;;;;;29.08;38.52;100278.59;4958437;29;20043;-86
2022/08/13 11:54:29;;;;;;;3.63;1.48;;;;;;;29.05;38.63;100273.72;4959160;28;20038;-87